Time;durP1;ratioP1;P1;durP2;ratioP2;P2;SDS_P1;SDS_P2;PMS_P1;PMS_P2;Temp;Humidity;BMP_temperature;BMP_pressure;BME280_temperature;BME280_humidity;BME280_pressure;Samples;Min_cycle;Max_cycle;Signal;HPM_P1;HPM_P2
2022/11/22 00:00:09;;;;;;;12.93;4.28;;;7.40;91.20;;;;;;5040479;28;20028;-67
2022/11/22 00:02:34;;;;;;;8.95;4.20;;;7.40;91.20;;;;;;5040686;28;20088;-67
2022/11/22 00:05:00;;;;;;;10.75;4.72;;;7.40;91.20;;;;;;5035547;28;20113;-67
2022/11/22 00:07:25;;;;;;;9.70;4.65;;;7.40;91.20;;;;;;5043215;28;20044;-67
2022/11/22 00:09:51;;;;;;;12.88;4.45;;;7.40;91.20;;;;;;5044476;28;20030;-67
2022/11/22 00:12:17;;;;;;;9.13;4.13;;;7.30;91.20;;;;;;5044465;28;20033;-67
2022/11/22 00:14:42;;;;;;;12.70;5.30;;;7.40;91.30;;;;;;5034889;28;20104;-66
2022/11/22 00:17:08;;;;;;;7.78;4.57;;;7.40;91.30;;;;;;5052045;28;20092;-67
2022/11/22 00:19:34;;;;;;;11.18;5.40;;;7.50;91.30;;;;;;5050380;28;20429;-67
2022/11/22 00:22:00;;;;;;;10.25;5.13;;;7.50;91.20;;;;;;5045271;28;20024;-67
2022/11/22 00:24:26;;;;;;;10.20;5.38;;;7.40;91.30;;;;;;5031546;28;20033;-69
2022/11/22 00:26:51;;;;;;;11.00;5.07;;;7.50;91.30;;;;;;5060982;28;20036;-69
2022/11/22 00:29:17;;;;;;;10.38;5.28;;;7.50;91.30;;;;;;5045664;28;20109;-69
2022/11/22 00:31:42;;;;;;;10.75;5.28;;;7.50;91.30;;;;;;5040733;28;20068;-69
2022/11/22 00:34:08;;;;;;;11.27;5.78;;;7.50;91.50;;;;;;5033404;28;20072;-69
2022/11/22 00:36:33;;;;;;;11.50;5.57;;;7.50;91.30;;;;;;5044805;28;20447;-68
2022/11/22 00:38:59;;;;;;;8.95;4.95;;;7.50;91.30;;;;;;5049178;28;20106;-69
2022/11/22 00:41:24;;;;;;;11.88;5.82;;;7.50;91.30;;;;;;5040308;28;20033;-69
2022/11/22 00:43:50;;;;;;;11.27;5.25;;;7.50;91.30;;;;;;5035631;28;20033;-68
2022/11/22 00:46:15;;;;;;;10.60;5.78;;;7.60;91.30;;;;;;5053714;28;20028;-69
2022/11/22 00:48:41;;;;;;;15.77;7.57;;;7.60;91.20;;;;;;5051582;28;20040;-68
2022/11/22 00:51:06;;;;;;;10.93;6.70;;;7.60;91.20;;;;;;5049543;28;20029;-68
2022/11/22 00:53:32;;;;;;;11.45;6.20;;;7.70;91.20;;;;;;5034569;28;20025;-68
2022/11/22 00:55:57;;;;;;;10.13;5.85;;;7.70;91.10;;;;;;5039794;28;20079;-68
2022/11/22 00:58:23;;;;;;;9.15;5.00;;;7.80;91.10;;;;;;5045405;28;20024;-68
2022/11/22 01:00:49;;;;;;;7.93;4.68;;;7.80;91.00;;;;;;5041226;28;20100;-68
2022/11/22 01:03:15;;;;;;;8.45;5.07;;;7.80;91.00;;;;;;5047055;28;20029;-68
2022/11/22 01:05:41;;;;;;;10.80;6.00;;;7.80;91.00;;;;;;5034145;28;20075;-69
2022/11/22 01:08:06;;;;;;;10.80;5.32;;;7.90;90.90;;;;;;5032740;28;20112;-69
2022/11/22 01:10:35;;;;;;;9.18;4.70;;;7.90;90.90;;;;;;5038315;28;20107;-69
2022/11/22 01:13:00;;;;;;;9.77;5.40;;;7.90;90.90;;;;;;5034118;28;20131;-69
2022/11/22 01:15:26;;;;;;;8.57;4.90;;;8.00;90.80;;;;;;5035971;28;20116;-69
2022/11/22 01:17:52;;;;;;;8.32;4.57;;;8.00;90.80;;;;;;5050533;28;20629;-69
2022/11/22 01:20:17;;;;;;;8.48;4.07;;;8.00;90.70;;;;;;5043826;28;20650;-69
2022/11/22 01:22:43;;;;;;;8.60;4.72;;;8.00;90.70;;;;;;5048910;28;20403;-69
2022/11/22 01:25:09;;;;;;;10.52;4.65;;;8.10;90.60;;;;;;5047122;28;20021;-69
2022/11/22 01:27:34;;;;;;;9.73;4.70;;;8.10;90.60;;;;;;5040294;28;20403;-69
2022/11/22 01:30:00;;;;;;;9.80;4.90;;;8.10;90.60;;;;;;5041773;28;20495;-69
2022/11/22 01:32:25;;;;;;;9.95;5.05;;;8.10;90.60;;;;;;5034127;28;20111;-69
2022/11/22 01:34:51;;;;;;;8.70;4.10;;;8.10;90.50;;;;;;5048524;28;20045;-69
2022/11/22 01:37:17;;;;;;;8.02;4.32;;;8.10;90.50;;;;;;5043322;28;20083;-68
2022/11/22 01:39:42;;;;;;;7.00;4.25;;;8.10;90.50;;;;;;5031099;28;20116;-69
2022/11/22 01:42:09;;;;;;;9.05;5.10;;;8.10;90.50;;;;;;5042885;28;20032;-69
2022/11/22 01:44:35;;;;;;;14.90;7.78;;;8.10;90.50;;;;;;5033698;28;20036;-68
2022/11/22 01:47:17;;;;;;;11.65;6.45;;;8.00;90.50;;;;;;5039124;28;20096;-68
2022/11/22 01:49:50;;;;;;;10.07;5.65;;;8.10;90.60;;;;;;5031158;28;20079;-68
2022/11/22 01:52:23;;;;;;;9.80;5.43;;;8.10;90.60;;;;;;5042500;28;20021;-69
2022/11/22 01:54:57;;;;;;;8.68;4.45;;;8.00;90.60;;;;;;5034828;28;20032;-68
2022/11/22 01:57:30;;;;;;;8.82;4.30;;;8.10;90.60;;;;;;5037990;28;20021;-68
2022/11/22 02:00:02;;;;;;;9.07;4.70;;;8.20;90.60;;;;;;5044829;28;20029;-69
2022/11/22 02:02:28;;;;;;;7.18;4.57;;;8.10;90.60;;;;;;5046020;28;20079;-68
2022/11/22 02:04:56;;;;;;;6.82;4.15;;;8.20;90.60;;;;;;5036142;28;20396;-69
2022/11/22 02:07:28;;;;;;;6.95;4.25;;;8.20;90.50;;;;;;5044397;28;20029;-68
2022/11/22 02:09:54;;;;;;;8.77;4.45;;;8.20;90.50;;;;;;5035272;28;20029;-68
2022/11/22 02:12:24;;;;;;;9.52;5.13;;;8.20;90.40;;;;;;5035533;28;20033;-68
2022/11/22 02:14:51;;;;;;;9.27;4.82;;;8.20;90.40;;;;;;5034306;28;20450;-68
2022/11/22 02:17:17;;;;;;;7.60;4.75;;;8.20;90.40;;;;;;5037419;28;20071;-67
2022/11/22 02:19:45;;;;;;;7.70;3.58;;;8.20;90.40;;;;;;5042309;28;20288;-67
2022/11/22 02:22:36;;;;;;;8.10;4.45;;;8.30;90.40;;;;;;5032001;28;20033;-68
2022/11/22 02:25:18;;;;;;;12.25;5.70;;;8.30;90.40;;;;;;5046609;28;20672;-68
2022/11/22 02:27:44;;;;;;;9.20;4.95;;;8.30;90.30;;;;;;5035433;28;20075;-68
2022/11/22 02:30:10;;;;;;;6.90;4.25;;;8.20;90.30;;;;;;5032732;28;20031;-68
2022/11/22 02:32:36;;;;;;;8.75;4.68;;;8.20;90.40;;;;;;5029793;28;20104;-68
2022/11/22 02:35:01;;;;;;;7.88;4.43;;;8.20;90.30;;;;;;5037913;28;20052;-68
2022/11/22 02:37:30;;;;;;;11.75;4.40;;;8.20;90.30;;;;;;5045469;28;20017;-68
2022/11/22 02:40:00;;;;;;;8.27;4.13;;;8.30;90.40;;;;;;5030434;28;20033;-69
2022/11/22 02:42:28;;;;;;;9.50;4.43;;;8.20;90.30;;;;;;5033885;28;20120;-68
2022/11/22 02:44:53;;;;;;;9.85;4.78;;;8.20;90.40;;;;;;5032696;28;20067;-68
2022/11/22 02:47:19;;;;;;;12.65;5.63;;;8.20;90.40;;;;;;5042494;28;20017;-68
2022/11/22 02:49:44;;;;;;;9.07;4.30;;;8.20;90.40;;;;;;5048038;28;20068;-68
2022/11/22 02:52:14;;;;;;;16.17;6.00;;;8.20;90.40;;;;;;5039077;28;20032;-68
2022/11/22 02:54:39;;;;;;;8.85;5.00;;;8.20;90.40;;;;;;5029593;28;20033;-68
2022/11/22 02:57:05;;;;;;;9.77;4.05;;;8.20;90.40;;;;;;5043372;28;20033;-68
2022/11/22 02:59:30;;;;;;;9.57;4.57;;;8.20;90.40;;;;;;5039194;28;20391;-68
2022/11/22 03:01:56;;;;;;;9.13;4.13;;;8.20;90.40;;;;;;5046588;28;20037;-69
2022/11/22 03:04:24;;;;;;;10.18;4.60;;;8.20;90.50;;;;;;5041790;28;20029;-69
2022/11/22 03:06:52;;;;;;;9.30;4.40;;;8.10;90.50;;;;;;5045613;28;20078;-69
2022/11/22 03:09:18;;;;;;;11.98;4.95;;;8.10;90.50;;;;;;5036610;28;20025;-69
2022/11/22 03:11:43;;;;;;;11.85;4.30;;;8.10;90.60;;;;;;5034177;28;20789;-69
2022/11/22 03:14:09;;;;;;;9.65;3.70;;;8.10;90.60;;;;;;5039387;28;20040;-69
2022/11/22 03:16:35;;;;;;;9.95;3.90;;;8.10;90.60;;;;;;5052306;28;20027;-69
2022/11/22 03:19:00;;;;;;;10.38;3.97;;;8.10;90.60;;;;;;5046135;28;20029;-69
2022/11/22 03:21:26;;;;;;;12.02;4.10;;;8.10;90.60;;;;;;5050295;28;20036;-69
2022/11/22 03:23:51;;;;;;;9.75;3.85;;;8.10;90.50;;;;;;5051118;28;20053;-69
2022/11/22 03:26:17;;;;;;;11.38;3.95;;;8.00;90.50;;;;;;5045908;28;20052;-70
2022/11/22 03:28:42;;;;;;;10.57;3.80;;;8.10;90.60;;;;;;5041965;28;20021;-69
2022/11/22 03:31:08;;;;;;;10.18;4.22;;;8.10;90.60;;;;;;5035988;28;20384;-69
2022/11/22 03:33:34;;;;;;;11.25;4.30;;;8.00;90.50;;;;;;5042962;28;20032;-69
2022/11/22 03:35:59;;;;;;;11.15;3.70;;;8.00;90.60;;;;;;5044378;28;20037;-70
2022/11/22 03:38:25;;;;;;;14.07;4.28;;;8.00;90.60;;;;;;5045755;28;20187;-70
2022/11/22 03:40:50;;;;;;;12.05;4.05;;;7.90;90.50;;;;;;5040949;28;20094;-70
2022/11/22 03:43:16;;;;;;;10.77;3.53;;;7.90;90.50;;;;;;5045984;28;20492;-70
2022/11/22 03:45:45;;;;;;;8.85;3.05;;;7.90;90.60;;;;;;5050005;28;20025;-69
2022/11/22 03:48:11;;;;;;;9.75;2.85;;;7.90;90.60;;;;;;5046763;28;20028;-68
2022/11/22 03:50:37;;;;;;;12.57;3.55;;;7.90;90.60;;;;;;5042000;28;20026;-69
2022/11/22 03:53:02;;;;;;;9.23;3.03;;;7.90;90.50;;;;;;5046224;28;20033;-69
2022/11/22 03:55:28;;;;;;;6.97;2.28;;;7.80;90.50;;;;;;5049153;28;20033;-69
2022/11/22 03:57:54;;;;;;;8.68;2.80;;;7.90;90.50;;;;;;5044399;28;20037;-69
2022/11/22 04:00:19;;;;;;;10.95;2.70;;;7.90;90.50;;;;;;5034070;28;20022;-69
2022/11/22 04:02:45;;;;;;;7.25;2.83;;;7.90;90.50;;;;;;5037566;28;20480;-68
2022/11/22 04:05:10;;;;;;;8.80;2.80;;;7.80;90.40;;;;;;5041906;28;20033;-69
2022/11/22 04:07:36;;;;;;;7.50;2.58;;;7.80;90.40;;;;;;5036932;28;20044;-68
2022/11/22 04:10:03;;;;;;;10.25;3.25;;;7.80;90.40;;;;;;5044792;28;20390;-68
2022/11/22 04:12:29;;;;;;;9.35;2.70;;;7.80;90.30;;;;;;5039036;28;20055;-68
2022/11/22 04:15:07;;;;;;;6.32;2.22;;;7.70;90.30;;;;;;5046943;28;20029;-68
2022/11/22 04:17:43;;;;;;;8.88;2.63;;;7.70;90.30;;;;;;5039432;28;20072;-68
2022/11/22 04:23:06;;;;;;;8.80;3.00;;;7.60;90.30;;;;;;5035331;28;20106;-69
2022/11/22 04:25:33;;;;;;;13.18;3.55;;;7.60;90.30;;;;;;5041055;28;20075;-69
2022/11/22 04:27:59;;;;;;;14.75;3.40;;;7.50;90.20;;;;;;5032407;28;20427;-69
2022/11/22 04:33:10;;;;;;;12.15;3.22;;;7.50;90.20;;;;;;5048387;28;20461;-69
2022/11/22 04:35:36;;;;;;;10.95;2.97;;;7.50;90.20;;;;;;5036527;28;20037;-69
2022/11/22 04:38:02;;;;;;;9.70;2.50;;;7.40;90.20;;;;;;5045443;28;20133;-69
2022/11/22 04:40:28;;;;;;;9.07;3.00;;;7.40;90.20;;;;;;5037687;28;20454;-69
2022/11/22 04:45:37;;;;;;;13.35;2.65;;;7.40;90.20;;;;;;5032239;28;20079;-68
2022/11/22 04:48:03;;;;;;;11.93;3.13;;;7.30;90.20;;;;;;5038531;28;20029;-68
2022/11/22 04:53:16;;;;;;;14.70;3.45;;;7.30;90.10;;;;;;5044571;28;20163;-68
2022/11/22 04:55:44;;;;;;;14.15;3.25;;;7.30;90.10;;;;;;5039559;28;20029;-68
2022/11/22 04:58:11;;;;;;;9.90;2.97;;;7.20;90.10;;;;;;5052927;28;20106;-69
2022/11/22 05:00:37;;;;;;;9.73;2.60;;;7.20;90.10;;;;;;5046281;28;20522;-68
2022/11/22 05:03:03;;;;;;;11.27;3.10;;;7.20;90.10;;;;;;5041749;28;20033;-69
2022/11/22 05:05:28;;;;;;;7.70;2.47;;;7.20;90.10;;;;;;5038403;28;20021;-68
2022/11/22 05:07:56;;;;;;;7.95;2.28;;;7.20;90.10;;;;;;5038021;28;20022;-69
2022/11/22 05:10:21;;;;;;;10.75;2.53;;;7.20;90.10;;;;;;5038967;28;20024;-68
2022/11/22 05:12:47;;;;;;;11.40;3.30;;;7.10;90.10;;;;;;5037019;28;20027;-68
2022/11/22 05:15:13;;;;;;;5.90;2.10;;;7.10;90.00;;;;;;5047103;28;20021;-69
2022/11/22 05:17:38;;;;;;;11.65;2.72;;;7.10;90.00;;;;;;5048377;28;20430;-68
2022/11/22 05:20:06;;;;;;;11.68;3.03;;;7.20;90.00;;;;;;5040764;28;20439;-68
2022/11/22 05:25:16;;;;;;;11.45;3.22;;;7.10;90.00;;;;;;5047501;28;20527;-68
2022/11/22 05:27:42;;;;;;;10.50;2.83;;;7.10;89.90;;;;;;5047044;28;20029;-69
2022/11/22 05:30:08;;;;;;;11.10;2.88;;;7.10;89.90;;;;;;5049164;28;20017;-68
2022/11/22 05:32:33;;;;;;;6.68;2.35;;;7.10;89.90;;;;;;5037017;28;20516;-68
2022/11/22 05:34:59;;;;;;;10.10;2.88;;;7.00;89.90;;;;;;5049111;28;20039;-68
2022/11/22 05:37:25;;;;;;;12.38;3.08;;;7.00;89.80;;;;;;5032127;28;20033;-68
2022/11/22 05:39:50;;;;;;;12.63;3.10;;;7.00;89.80;;;;;;5040112;28;20033;-68
2022/11/22 05:42:16;;;;;;;10.60;2.85;;;7.00;89.80;;;;;;5031969;28;20109;-69
2022/11/22 05:44:42;;;;;;;9.70;2.08;;;6.90;89.80;;;;;;5048682;28;20380;-68
2022/11/22 05:47:08;;;;;;;14.20;3.30;;;6.90;89.80;;;;;;5042793;28;20024;-68
2022/11/22 05:49:34;;;;;;;9.43;2.83;;;6.90;89.80;;;;;;5029985;28;20018;-68
2022/11/22 05:52:00;;;;;;;13.52;3.17;;;6.90;89.80;;;;;;5041650;28;20028;-68
2022/11/22 05:54:25;;;;;;;8.05;2.20;;;6.80;89.70;;;;;;5037208;28;20021;-69
2022/11/22 05:56:51;;;;;;;11.30;2.63;;;6.80;89.70;;;;;;5032332;28;20393;-69
2022/11/22 05:59:16;;;;;;;12.00;2.88;;;6.80;89.60;;;;;;5031924;28;20467;-69
2022/11/22 06:01:42;;;;;;;11.73;2.78;;;6.80;89.60;;;;;;5040003;28;20025;-69
2022/11/22 06:04:07;;;;;;;8.73;2.55;;;6.80;89.80;;;;;;5047288;28;20036;-68
2022/11/22 06:06:33;;;;;;;8.80;2.50;;;6.80;89.80;;;;;;5034850;28;20017;-68
2022/11/22 06:08:58;;;;;;;9.50;2.47;;;6.80;89.70;;;;;;5047109;28;20027;-69
2022/11/22 06:11:26;;;;;;;8.05;2.50;;;6.80;89.60;;;;;;5041819;28;20100;-70
2022/11/22 06:13:57;;;;;;;10.35;2.40;;;6.80;89.60;;;;;;5042767;28;20040;-68
2022/11/22 06:16:23;;;;;;;10.98;2.40;;;6.80;89.70;;;;;;5039565;28;20107;-68
2022/11/22 06:18:49;;;;;;;8.18;2.20;;;6.70;89.60;;;;;;5043737;28;20386;-68
2022/11/22 06:21:17;;;;;;;9.10;2.63;;;6.70;89.70;;;;;;5046773;28;20112;-69
2022/11/22 06:23:43;;;;;;;11.13;2.72;;;6.70;89.60;;;;;;5045319;28;20037;-68
2022/11/22 06:26:14;;;;;;;7.40;2.63;;;6.70;89.50;;;;;;5047600;28;20025;-68
2022/11/22 06:28:40;;;;;;;10.43;2.42;;;6.60;89.40;;;;;;5032072;28;20033;-68
2022/11/22 06:31:17;;;;;;;11.82;2.88;;;6.60;89.40;;;;;;5031812;28;20642;-68
2022/11/22 06:33:44;;;;;;;9.95;2.33;;;6.60;89.40;;;;;;5034532;28;20021;-69
2022/11/22 06:36:15;;;;;;;9.68;2.70;;;6.60;89.40;;;;;;5039414;28;20025;-68
2022/11/22 06:38:41;;;;;;;8.20;2.17;;;6.60;89.40;;;;;;5035538;28;20045;-67
2022/11/22 06:41:09;;;;;;;10.68;2.95;;;6.70;89.50;;;;;;5039356;28;20083;-68
2022/11/22 06:43:36;;;;;;;9.43;2.50;;;6.70;89.40;;;;;;5035383;28;20036;-69
2022/11/22 06:46:03;;;;;;;7.63;2.20;;;6.60;89.20;;;;;;5035198;28;20022;-68
2022/11/22 06:48:29;;;;;;;7.18;2.78;;;6.70;89.30;;;;;;5037964;28;20025;-68
2022/11/22 06:51:02;;;;;;;10.25;2.47;;;6.70;89.20;;;;;;5043419;28;20029;-68
2022/11/22 06:53:29;;;;;;;6.35;2.33;;;6.70;89.10;;;;;;5043418;28;20045;-68
2022/11/22 06:56:02;;;;;;;7.50;2.33;;;6.60;89.10;;;;;;5042865;28;20061;-68
2022/11/22 06:58:28;;;;;;;6.43;2.05;;;6.60;89.00;;;;;;5032902;28;20087;-70
2022/11/22 07:01:24;;;;;;;7.90;2.78;;;6.60;89.10;;;;;;5039670;28;20029;-70
2022/11/22 07:03:50;;;;;;;8.63;2.70;;;6.50;89.70;;;;;;5035395;28;20376;-69
2022/11/22 07:06:17;;;;;;;11.68;2.55;;;6.50;89.10;;;;;;5035176;28;20029;-70
2022/11/22 07:08:44;;;;;;;10.80;2.67;;;6.50;89.10;;;;;;5040286;28;20083;-68
2022/11/22 07:11:21;;;;;;;10.90;2.30;;;6.60;89.10;;;;;;5046852;28;20028;-69
2022/11/22 07:13:48;;;;;;;8.40;2.88;;;6.40;89.10;;;;;;5046300;28;20029;-69
2022/11/22 07:16:16;;;;;;;10.10;2.60;;;6.40;89.10;;;;;;5035255;28;20036;-69
2022/11/22 07:18:43;;;;;;;12.13;2.65;;;6.40;89.10;;;;;;5031427;28;20026;-69
2022/11/22 07:21:16;;;;;;;7.82;2.50;;;6.40;89.10;;;;;;5043960;28;20102;-69
2022/11/22 07:23:43;;;;;;;11.05;2.97;;;6.40;89.10;;;;;;5030804;28;20451;-69
2022/11/22 07:26:10;;;;;;;8.65;2.83;;;6.40;89.10;;;;;;5048871;28;20071;-69
2022/11/22 07:28:36;;;;;;;7.60;2.47;;;6.40;89.10;;;;;;5044971;28;20022;-69
2022/11/22 07:31:04;;;;;;;11.93;2.80;;;6.30;89.20;;;;;;5039857;28;20476;-69
2022/11/22 07:33:30;;;;;;;8.45;2.60;;;6.40;89.30;;;;;;5028705;28;20464;-69
2022/11/22 07:36:05;;;;;;;7.38;2.67;;;6.40;89.20;;;;;;5028839;28;20040;-69
2022/11/22 07:38:32;;;;;;;8.30;2.63;;;6.40;89.00;;;;;;5044012;28;20025;-69
2022/11/22 07:40:57;;;;;;;6.63;2.63;;;6.40;89.00;;;;;;5044145;28;20637;-69
2022/11/22 07:43:23;;;;;;;7.63;2.65;;;6.50;89.00;;;;;;5037707;28;20036;-69
2022/11/22 07:45:49;;;;;;;8.15;2.40;;;6.50;88.90;;;;;;5039748;28;20037;-69
2022/11/22 07:48:14;;;;;;;13.25;2.95;;;6.50;88.90;;;;;;5049006;28;20029;-69
2022/11/22 07:50:40;;;;;;;9.30;2.70;;;6.50;88.90;;;;;;5055645;28;20021;-69
2022/11/22 07:53:07;;;;;;;9.98;2.78;;;6.50;88.80;;;;;;5041008;28;20059;-69
2022/11/22 07:55:32;;;;;;;12.10;3.00;;;6.50;88.80;;;;;;5038808;28;20079;-69
2022/11/22 07:57:59;;;;;;;14.63;3.30;;;6.60;88.70;;;;;;5044877;28;20029;-69
2022/11/22 08:00:25;;;;;;;8.02;2.78;;;6.50;88.60;;;;;;5044453;28;20017;-69
2022/11/22 08:02:51;;;;;;;8.93;2.78;;;6.50;88.60;;;;;;5038472;28;20021;-69
2022/11/22 08:05:16;;;;;;;11.02;2.85;;;6.50;88.70;;;;;;5042612;28;20060;-69
2022/11/22 08:07:50;;;;;;;9.95;2.70;;;6.60;88.80;;;;;;5037370;28;20029;-69
2022/11/22 08:10:17;;;;;;;5.80;2.30;;;6.60;88.80;;;;;;5046735;28;20040;-69
2022/11/22 08:12:43;;;;;;;7.47;1.95;;;6.70;88.70;;;;;;5043714;28;20101;-69
2022/11/22 08:15:10;;;;;;;10.13;2.72;;;6.70;88.60;;;;;;5038098;28;20037;-69
2022/11/22 08:17:37;;;;;;;8.50;2.80;;;6.70;88.50;;;;;;5046962;28;20029;-69
2022/11/22 08:20:03;;;;;;;11.77;3.13;;;6.70;88.40;;;;;;5044095;28;20021;-69
2022/11/22 08:22:29;;;;;;;12.85;2.92;;;6.70;88.30;;;;;;5046397;28;20028;-69
2022/11/22 08:24:55;;;;;;;11.65;2.83;;;6.70;88.30;;;;;;5050257;28;20559;-69
2022/11/22 08:27:20;;;;;;;9.98;2.60;;;6.70;88.20;;;;;;5038649;28;20122;-69
2022/11/22 08:29:46;;;;;;;6.75;2.50;;;6.70;88.10;;;;;;5038449;28;21672;-69
2022/11/22 08:32:11;;;;;;;7.97;2.50;;;6.80;88.10;;;;;;5040483;28;20523;-69
2022/11/22 08:34:37;;;;;;;7.97;3.03;;;6.80;88.70;;;;;;5043713;28;20120;-69
2022/11/22 08:37:02;;;;;;;10.43;2.90;;;6.80;87.90;;;;;;5037100;28;20051;-69
2022/11/22 08:39:29;;;;;;;12.05;2.85;;;6.80;87.70;;;;;;5040377;28;20104;-69
2022/11/22 08:41:54;;;;;;;7.95;2.78;;;6.80;87.60;;;;;;5041493;28;20111;-69
2022/11/22 08:44:20;;;;;;;10.55;2.92;;;6.80;87.60;;;;;;5043166;28;20609;-69
2022/11/22 08:46:45;;;;;;;16.60;3.05;;;6.90;87.50;;;;;;5040701;28;20040;-69
2022/11/22 08:49:12;;;;;;;8.25;2.42;;;6.90;87.20;;;;;;5041117;28;20104;-69
2022/11/22 08:51:43;;;;;;;10.15;2.72;;;6.90;87.20;;;;;;5033299;28;20021;-69
2022/11/22 08:54:10;;;;;;;12.00;2.85;;;6.90;87.20;;;;;;5043433;28;20025;-69
2022/11/22 08:56:36;;;;;;;9.48;2.85;;;6.90;87.30;;;;;;5039694;28;20043;-69
2022/11/22 08:59:01;;;;;;;9.48;3.22;;;6.90;87.30;;;;;;5044011;28;20400;-69
2022/11/22 09:01:27;;;;;;;8.85;2.40;;;6.90;87.20;;;;;;5042069;28;20044;-69
2022/11/22 09:03:52;;;;;;;8.68;2.85;;;7.00;87.20;;;;;;5049045;28;20108;-70
2022/11/22 09:06:19;;;;;;;7.63;2.60;;;7.00;87.00;;;;;;5047016;28;20100;-69
2022/11/22 09:08:45;;;;;;;8.13;2.30;;;7.20;86.90;;;;;;5039997;28;20024;-69
2022/11/22 09:11:13;;;;;;;9.73;2.53;;;7.20;86.70;;;;;;5045700;28;20025;-69
2022/11/22 09:13:39;;;;;;;7.80;2.60;;;7.30;86.60;;;;;;5047013;28;20056;-69
2022/11/22 09:16:10;;;;;;;6.45;2.25;;;7.20;86.20;;;;;;5048511;28;20032;-69
2022/11/22 09:18:36;;;;;;;9.45;2.58;;;7.30;85.90;;;;;;5035893;28;20553;-69
2022/11/22 09:21:04;;;;;;;7.65;2.45;;;7.30;85.60;;;;;;5042510;28;20017;-69
2022/11/22 09:23:30;;;;;;;9.68;2.30;;;7.30;85.60;;;;;;5042031;28;20052;-69
2022/11/22 09:26:02;;;;;;;6.72;2.45;;;7.30;85.50;;;;;;5038586;28;20391;-69
2022/11/22 09:28:28;;;;;;;4.43;1.80;;;7.40;85.60;;;;;;5042429;28;20033;-69
2022/11/22 09:31:06;;;;;;;4.72;1.90;;;7.40;85.50;;;;;;5045280;28;20464;-69
2022/11/22 09:33:34;;;;;;;6.57;2.30;;;7.50;85.50;;;;;;5044816;28;20553;-69
2022/11/22 09:36:08;;;;;;;8.48;2.60;;;7.50;85.30;;;;;;5034233;28;20037;-69
2022/11/22 09:38:35;;;;;;;4.78;2.00;;;7.50;85.20;;;;;;5036449;28;20049;-69
2022/11/22 09:41:28;;;;;;;6.20;2.28;;;7.50;85.10;;;;;;5040709;28;20076;-69
2022/11/22 09:44:24;;;;;;;7.10;2.55;;;7.50;85.10;;;;;;5043696;28;20028;-69
2022/11/22 09:46:55;;;;;;;8.73;2.30;;;7.60;85.10;;;;;;5036376;28;20021;-69
2022/11/22 09:49:23;;;;;;;6.90;2.35;;;7.60;85.00;;;;;;5043944;28;20035;-69
2022/11/22 09:52:00;;;;;;;8.70;3.10;;;7.60;84.80;;;;;;5044307;28;20067;-69
2022/11/22 09:54:33;;;;;;;11.43;2.72;;;7.60;84.70;;;;;;5036586;28;20025;-69
2022/11/22 09:57:02;;;;;;;9.75;2.63;;;7.50;84.40;;;;;;5044264;28;20060;-69
2022/11/22 09:59:32;;;;;;;6.95;2.50;;;7.60;84.50;;;;;;5044407;28;20438;-69
2022/11/22 10:02:07;;;;;;;4.72;2.05;;;7.60;84.40;;;;;;5040240;28;20024;-69
2022/11/22 10:04:43;;;;;;;9.13;2.63;;;7.60;84.50;;;;;;5043771;28;20028;-69
2022/11/22 10:07:16;;;;;;;6.40;2.20;;;7.70;84.30;;;;;;5038368;28;20109;-69
2022/11/22 10:09:48;;;;;;;;;;;7.70;84.20;;;;;;5041908;28;20024;-69
2022/11/22 10:12:31;;;;;;;6.95;2.30;;;7.70;83.90;;;;;;5043514;28;19924;-69
2022/11/22 10:15:20;;;;;;;9.23;2.72;;;7.70;83.80;;;;;;5045215;28;20485;-69
2022/11/22 10:18:03;;;;;;;9.48;2.95;;;7.70;83.90;;;;;;5041804;28;20095;-69
2022/11/22 10:20:34;;;;;;;14.02;3.10;;;7.70;83.60;;;;;;5041790;28;20040;-69
2022/11/22 10:23:01;;;;;;;8.57;2.80;;;7.70;83.50;;;;;;5044562;28;20457;-69
2022/11/22 10:25:56;;;;;;;7.38;2.58;;;7.80;83.60;;;;;;5040822;28;20108;-69
2022/11/22 10:28:47;;;;;;;22.90;4.13;;;7.80;83.50;;;;;;5042629;28;20017;-69
2022/11/22 10:31:32;;;;;;;5.57;2.50;;;7.90;83.30;;;;;;5040298;28;20025;-69
2022/11/22 10:33:58;;;;;;;7.50;2.50;;;7.90;83.20;;;;;;5043666;28;20040;-69
2022/11/22 10:36:42;;;;;;;6.53;2.10;;;8.00;83.20;;;;;;5047094;28;20419;-69
2022/11/22 10:39:46;;;;;;;4.63;2.13;;;8.00;83.20;;;;;;5044317;28;20025;-69
2022/11/22 10:42:31;;;;;;;8.27;2.30;;;8.10;83.10;;;;;;5040013;28;20036;-69
2022/11/22 10:45:17;;;;;;;7.70;2.63;;;8.10;82.80;;;;;;5036659;28;20024;-69
2022/11/22 10:48:07;;;;;;;5.88;2.17;;;8.20;82.60;;;;;;5037759;28;20026;-69
2022/11/22 10:50:48;;;;;;;3.58;1.95;;;8.10;82.60;;;;;;5041291;28;20041;-69
2022/11/22 10:53:44;;;;;;;8.13;2.50;;;8.20;82.70;;;;;;5038353;28;20116;-69
2022/11/22 10:56:22;;;;;;;7.70;2.25;;;8.20;82.40;;;;;;5040579;28;20025;-69
2022/11/22 10:59:18;;;;;;;5.47;2.03;;;8.20;82.40;;;;;;5041130;28;20037;-69
2022/11/22 11:02:01;;;;;;;9.18;2.65;;;8.20;82.50;;;;;;5040877;28;20070;-69
2022/11/22 11:04:33;;;;;;;5.75;2.47;;;8.20;82.20;;;;;;5035609;28;20587;-69
2022/11/22 11:07:00;;;;;;;6.77;2.80;;;8.20;82.20;;;;;;5045548;28;20051;-69
2022/11/22 11:09:46;;;;;;;5.50;2.40;;;8.20;82.20;;;;;;5038366;28;20037;-69
2022/11/22 11:12:20;;;;;;;6.53;2.03;;;8.30;82.00;;;;;;5044537;28;20399;-69
2022/11/22 11:14:53;;;;;;;6.55;2.13;;;8.30;82.60;;;;;;5034692;28;20051;-69
2022/11/22 11:17:28;;;;;;;5.55;2.20;;;8.40;82.00;;;;;;5047019;28;20025;-69
2022/11/22 11:19:57;;;;;;;7.05;1.75;;;8.30;81.70;;;;;;5045938;28;20501;-69
2022/11/22 11:22:24;;;;;;;5.40;2.05;;;8.40;81.80;;;;;;5046281;28;20108;-69
2022/11/22 11:24:50;;;;;;;3.83;1.95;;;8.40;81.80;;;;;;5039010;28;20816;-69
2022/11/22 11:27:18;;;;;;;11.13;2.25;;;8.40;81.40;;;;;;5046481;28;20025;-69
2022/11/22 11:30:01;;;;;;;5.47;1.90;;;8.30;81.30;;;;;;5047568;28;20106;-69
2022/11/22 11:32:26;;;;;;;5.13;1.80;;;8.40;81.50;;;;;;5037263;28;20020;-69
2022/11/22 11:34:56;;;;;;;4.53;1.70;;;8.40;81.30;;;;;;5044409;28;20043;-69
2022/11/22 11:37:37;;;;;;;6.80;2.30;;;8.30;81.10;;;;;;5043772;28;20028;-69
2022/11/22 11:40:04;;;;;;;4.55;1.90;;;8.30;81.10;;;;;;5043330;28;20099;-69
2022/11/22 11:42:34;;;;;;;5.10;2.03;;;8.30;81.20;;;;;;5047629;28;20475;-69
2022/11/22 11:45:24;;;;;;;6.28;2.38;;;8.40;81.00;;;;;;5042036;28;20505;-69
2022/11/22 11:47:50;;;;;;;4.03;1.70;;;8.40;80.60;;;;;;5039542;28;20021;-69
2022/11/22 11:50:26;;;;;;;4.00;1.75;;;8.40;80.60;;;;;;5042935;28;20028;-69
2022/11/22 11:53:04;;;;;;;3.33;1.80;;;8.40;80.50;;;;;;5049423;28;20060;-69
2022/11/22 11:55:33;;;;;;;5.00;1.60;;;8.40;80.50;;;;;;5039529;28;20102;-69
2022/11/22 11:58:02;;;;;;;2.65;1.40;;;8.40;80.40;;;;;;5045197;28;20023;-69
2022/11/22 12:00:36;;;;;;;3.33;1.40;;;8.40;80.00;;;;;;5054305;28;20037;-69
2022/11/22 12:03:06;;;;;;;2.85;1.50;;;8.50;80.10;;;;;;5046089;28;20365;-69
2022/11/22 12:05:33;;;;;;;2.42;1.40;;;8.50;79.90;;;;;;5044557;28;20049;-69
2022/11/22 12:07:59;;;;;;;4.72;1.85;;;8.50;79.50;;;;;;5040404;28;20017;-69
2022/11/22 12:10:48;;;;;;;1.85;1.15;;;8.50;79.30;;;;;;5046148;28;20114;-69
2022/11/22 12:13:33;;;;;;;3.83;1.40;;;8.60;79.40;;;;;;5048238;28;20478;-69
2022/11/22 12:16:21;;;;;;;4.78;1.55;;;8.70;79.20;;;;;;5051436;28;20020;-69
2022/11/22 12:18:55;;;;;;;3.70;1.65;;;8.70;79.20;;;;;;5045346;28;20547;-69
2022/11/22 12:21:48;;;;;;;2.97;1.27;;;8.80;79.20;;;;;;5051278;28;20724;-69
2022/11/22 12:24:31;;;;;;;3.17;1.40;;;8.90;79.10;;;;;;5049377;28;20049;-69
2022/11/22 12:26:57;;;;;;;2.13;1.30;;;8.90;79.10;;;;;;5042230;28;20107;-69
2022/11/22 12:29:23;;;;;;;3.50;1.40;;;8.90;79.10;;;;;;5042856;28;20017;-69
2022/11/22 12:31:54;;;;;;;4.38;1.33;;;9.00;79.10;;;;;;5048695;28;20060;-69
2022/11/22 12:34:33;;;;;;;3.10;1.33;;;9.00;78.70;;;;;;5049008;28;20043;-69
2022/11/22 12:37:11;;;;;;;1.15;1.02;;;9.00;78.60;;;;;;5051107;28;20021;-69
2022/11/22 12:39:37;;;;;;;1.95;1.10;;;9.00;78.50;;;;;;5050620;28;20028;-69
2022/11/22 12:42:07;;;;;;;2.42;1.50;;;8.90;78.20;;;;;;5047551;28;20146;-69
2022/11/22 12:44:38;;;;;;;3.35;1.38;;;9.00;77.90;;;;;;5050407;28;20106;-69
2022/11/22 12:47:12;;;;;;;2.97;1.40;;;8.90;77.80;;;;;;5045308;28;20442;-69
2022/11/22 12:49:52;;;;;;;2.80;1.20;;;8.90;77.80;;;;;;5043423;28;20488;-69
2022/11/22 12:53:06;;;;;;;3.67;1.40;;;8.90;77.90;;;;;;5045893;28;20016;-69
2022/11/22 12:55:52;;;;;;;4.32;1.40;;;8.90;78.10;;;;;;5002787;28;20034;-69
2022/11/22 12:58:29;;;;;;;2.15;1.40;;;8.90;78.10;;;;;;5043457;28;20013;-69
2022/11/22 13:01:11;;;;;;;2.53;1.20;;;8.90;78.10;;;;;;5043122;28;20464;-69
2022/11/22 13:03:43;;;;;;;3.22;1.50;;;8.90;78.20;;;;;;5045466;28;20036;-69
2022/11/22 13:06:10;;;;;;;1.45;1.10;;;8.90;78.10;;;;;;5042213;28;20110;-69
2022/11/22 13:08:45;;;;;;;1.65;1.10;;;8.80;78.20;;;;;;5048419;28;20441;-69
2022/11/22 13:11:33;;;;;;;1.20;1.10;;;8.80;78.20;;;;;;5050293;28;20043;-69
2022/11/22 13:14:11;;;;;;;1.90;1.15;;;8.80;77.90;;;;;;5048175;28;20013;-69
2022/11/22 13:16:36;;;;;;;3.55;1.20;;;8.80;77.90;;;;;;5050350;28;20025;-69
2022/11/22 13:19:04;;;;;;;1.33;1.00;;;8.80;77.70;;;;;;5043412;28;20017;-69